Etusivu
METAR-TAF:

METAR-TAF

Lentoasemat :

Harlan Municipal Airport

Harlan, Iowa, Yhdysvallat

Leveyspiiri: 41-35-04N, Pituuspiiri: 095-20-23W, korkeus merenpinnasta: 375 m

Tämänhetkinen sää

Tämä raportti tehtiin 15 minuuttia sitten, kello 18.15 UTC
Tuuli 14 kn etelästä
Lämpötila -9°C
Kosteus 62%
Ilmanpaine 1030 hPa
Näkyvyys: 16.1 km
selkeää

METAR: KHNR 121815Z AUTO 18014KT 10SM CLR M09/M15 A3042 RMK AO2

Aika: 12:30 (18:30 UTC)


TAF: puuttuu

Säähavainnot ja -ennusteet yli 4000 lentoasemalta (METAR- ja TAF-raportit).

Käytössä olevat sääasemat on merkitty karttaan keltaisilla ja punaisilla pisteillä.

Aseta hiiri pisteen päälle nähdäksesi sääaseman nimen.

Klikkaa sitten nähdäksesi säähavainnot ja -ennusteet.

Kartan vaihtaminen: klikkaa mustalla rastilla varustettuja vihreitä pisteitä, niin voit zoomata sisään; viivalla varustettua vihreää pistettä, niin voit zoomata ulos tai vihreitä nuolia, niin pääset viereisille kartoille.


METAR-TAF: